sensor_id;sensor_type;location;lat;lon;timestamp;temperature;humidity
39779;DHT22;25454;49.878;8.618;2023-04-03T00:02:56;5.40;99.90
39779;DHT22;25454;49.878;8.618;2023-04-03T00:07:56;5.40;99.90
39779;DHT22;25454;49.878;8.618;2023-04-03T00:12:57;5.30;99.90
39779;DHT22;25454;49.878;8.618;2023-04-03T00:17:57;5.30;99.90
39779;DHT22;25454;49.878;8.618;2023-04-03T00:22:58;5.20;99.90
39779;DHT22;25454;49.878;8.618;2023-04-03T00:27:59;5.10;99.90
39779;DHT22;25454;49.878;8.618;2023-04-03T00:32:59;5.10;99.90
39779;DHT22;25454;49.878;8.618;2023-04-03T00:38:00;5.00;99.90
39779;DHT22;25454;49.878;8.618;2023-04-03T00:43:01;5.00;99.90
39779;DHT22;25454;49.878;8.618;2023-04-03T00:48:08;5.00;99.90
39779;DHT22;25454;49.878;8.618;2023-04-03T00:53:14;4.90;99.90
39779;DHT22;25454;49.878;8.618;2023-04-03T00:58:19;4.90;99.90
39779;DHT22;25454;49.878;8.618;2023-04-03T01:03:20;4.90;99.90
39779;DHT22;25454;49.878;8.618;2023-04-03T01:08:20;4.90;99.90
39779;DHT22;25454;49.878;8.618;2023-04-03T01:13:30;4.90;99.90
39779;DHT22;25454;49.878;8.618;2023-04-03T01:18:32;4.90;99.90
39779;DHT22;25454;49.878;8.618;2023-04-03T01:23:50;5.00;99.90
39779;DHT22;25454;49.878;8.618;2023-04-03T01:28:54;4.90;99.90
39779;DHT22;25454;49.878;8.618;2023-04-03T01:33:55;4.90;99.90
39779;DHT22;25454;49.878;8.618;2023-04-03T01:38:57;4.90;99.90
39779;DHT22;25454;49.878;8.618;2023-04-03T01:43:59;5.00;99.90
39779;DHT22;25454;49.878;8.618;2023-04-03T01:49:00;5.00;99.90
39779;DHT22;25454;49.878;8.618;2023-04-03T01:54:00;5.10;99.90
39779;DHT22;25454;49.878;8.618;2023-04-03T01:59:01;5.10;99.90
39779;DHT22;25454;49.878;8.618;2023-04-03T02:04:05;5.10;99.90
39779;DHT22;25454;49.878;8.618;2023-04-03T02:09:05;5.10;99.90
39779;DHT22;25454;49.878;8.618;2023-04-03T02:14:07;5.10;99.90
39779;DHT22;25454;49.878;8.618;2023-04-03T02:19:07;5.10;99.90
39779;DHT22;25454;49.878;8.618;2023-04-03T02:24:08;5.10;99.90
39779;DHT22;25454;49.878;8.618;2023-04-03T02:29:12;5.00;99.90
39779;DHT22;25454;49.878;8.618;2023-04-03T02:34:12;5.00;99.90
39779;DHT22;25454;49.878;8.618;2023-04-03T02:39:13;5.00;99.90
39779;DHT22;25454;49.878;8.618;2023-04-03T02:44:14;5.00;99.90
39779;DHT22;25454;49.878;8.618;2023-04-03T02:49:14;4.90;99.90
39779;DHT22;25454;49.878;8.618;2023-04-03T02:54:15;4.90;99.90
39779;DHT22;25454;49.878;8.618;2023-04-03T02:59:19;4.80;99.90
39779;DHT22;25454;49.878;8.618;2023-04-03T03:04:20;4.80;99.90
39779;DHT22;25454;49.878;8.618;2023-04-03T03:09:21;4.80;99.90
39779;DHT22;25454;49.878;8.618;2023-04-03T03:14:21;4.70;99.90
39779;DHT22;25454;49.878;8.618;2023-04-03T03:19:22;4.70;99.90
39779;DHT22;25454;49.878;8.618;2023-04-03T03:24:22;4.60;99.90
39779;DHT22;25454;49.878;8.618;2023-04-03T03:29:23;4.50;99.90
39779;DHT22;25454;49.878;8.618;2023-04-03T03:34:23;4.50;99.90
39779;DHT22;25454;49.878;8.618;2023-04-03T03:39:24;4.50;99.90
39779;DHT22;25454;49.878;8.618;2023-04-03T03:44:25;4.40;99.90
39779;DHT22;25454;49.878;8.618;2023-04-03T03:49:25;4.40;99.90
39779;DHT22;25454;49.878;8.618;2023-04-03T03:54:26;4.40;99.90
39779;DHT22;25454;49.878;8.618;2023-04-03T03:59:27;4.50;99.90
39779;DHT22;25454;49.878;8.618;2023-04-03T04:04:27;4.50;99.90
39779;DHT22;25454;49.878;8.618;2023-04-03T04:09:28;4.60;99.90
39779;DHT22;25454;49.878;8.618;2023-04-03T04:14:29;4.60;99.90
39779;DHT22;25454;49.878;8.618;2023-04-03T04:19:29;4.60;99.90
39779;DHT22;25454;49.878;8.618;2023-04-03T04:24:30;4.70;99.90
39779;DHT22;25454;49.878;8.618;2023-04-03T04:29:30;4.70;99.90
39779;DHT22;25454;49.878;8.618;2023-04-03T04:34:35;4.80;99.90
39779;DHT22;25454;49.878;8.618;2023-04-03T04:39:36;4.80;99.90
39779;DHT22;25454;49.878;8.618;2023-04-03T04:44:37;4.80;99.90
39779;DHT22;25454;49.878;8.618;2023-04-03T04:49:37;4.80;99.90
39779;DHT22;25454;49.878;8.618;2023-04-03T04:54:38;4.80;99.90
39779;DHT22;25454;49.878;8.618;2023-04-03T04:59:38;4.80;99.90
39779;DHT22;25454;49.878;8.618;2023-04-03T05:04:39;4.70;99.90
39779;DHT22;25454;49.878;8.618;2023-04-03T05:09:40;4.80;99.90
39779;DHT22;25454;49.878;8.618;2023-04-03T05:14:42;4.70;99.90
39779;DHT22;25454;49.878;8.618;2023-04-03T05:19:43;4.80;99.90
39779;DHT22;25454;49.878;8.618;2023-04-03T05:24:43;4.70;99.90
39779;DHT22;25454;49.878;8.618;2023-04-03T05:29:44;4.70;99.90
39779;DHT22;25454;49.878;8.618;2023-04-03T05:34:44;4.70;99.90
39779;DHT22;25454;49.878;8.618;2023-04-03T05:39:45;4.80;99.90
39779;DHT22;25454;49.878;8.618;2023-04-03T05:44:46;4.80;99.90
39779;DHT22;25454;49.878;8.618;2023-04-03T05:49:47;4.80;99.90
39779;DHT22;25454;49.878;8.618;2023-04-03T05:54:48;4.90;99.90
39779;DHT22;25454;49.878;8.618;2023-04-03T05:59:49;5.10;99.90
39779;DHT22;25454;49.878;8.618;2023-04-03T06:04:50;5.20;99.90
39779;DHT22;25454;49.878;8.618;2023-04-03T06:09:51;5.30;99.90
39779;DHT22;25454;49.878;8.618;2023-04-03T06:14:52;5.70;99.90
39779;DHT22;25454;49.878;8.618;2023-04-03T06:19:52;5.80;99.90
39779;DHT22;25454;49.878;8.618;2023-04-03T06:24:53;6.50;99.90
39779;DHT22;25454;49.878;8.618;2023-04-03T06:29:54;6.40;99.90
39779;DHT22;25454;49.878;8.618;2023-04-03T06:34:55;6.40;99.90
39779;DHT22;25454;49.878;8.618;2023-04-03T06:39:57;6.40;99.90
39779;DHT22;25454;49.878;8.618;2023-04-03T06:44:58;6.50;99.90
39779;DHT22;25454;49.878;8.618;2023-04-03T06:49:59;6.80;99.90
39779;DHT22;25454;49.878;8.618;2023-04-03T06:54:59;7.00;99.90
39779;DHT22;25454;49.878;8.618;2023-04-03T07:00:01;7.00;99.90
39779;DHT22;25454;49.878;8.618;2023-04-03T07:05:02;7.00;99.90
39779;DHT22;25454;49.878;8.618;2023-04-03T07:10:03;6.90;99.90
39779;DHT22;25454;49.878;8.618;2023-04-03T07:15:05;6.70;99.90
39779;DHT22;25454;49.878;8.618;2023-04-03T07:20:07;6.60;99.90
39779;DHT22;25454;49.878;8.618;2023-04-03T07:25:08;6.60;99.90
39779;DHT22;25454;49.878;8.618;2023-04-03T07:30:10;6.40;99.90
39779;DHT22;25454;49.878;8.618;2023-04-03T07:35:11;6.50;99.90
39779;DHT22;25454;49.878;8.618;2023-04-03T07:40:11;6.40;99.90
39779;DHT22;25454;49.878;8.618;2023-04-03T07:45:12;6.40;99.90
39779;DHT22;25454;49.878;8.618;2023-04-03T07:50:12;6.70;99.90
39779;DHT22;25454;49.878;8.618;2023-04-03T07:55:13;7.10;99.90
39779;DHT22;25454;49.878;8.618;2023-04-03T08:00:14;10.00;99.90
39779;DHT22;25454;49.878;8.618;2023-04-03T08:05:16;12.60;98.60
39779;DHT22;25454;49.878;8.618;2023-04-03T08:10:17;13.40;91.00
39779;DHT22;25454;49.878;8.618;2023-04-03T08:15:18;14.00;82.70
39779;DHT22;25454;49.878;8.618;2023-04-03T08:20:18;13.90;78.90
39779;DHT22;25454;49.878;8.618;2023-04-03T08:25:20;15.00;72.40
39779;DHT22;25454;49.878;8.618;2023-04-03T08:30:20;15.50;69.60
39779;DHT22;25454;49.878;8.618;2023-04-03T08:35:21;15.90;65.30
39779;DHT22;25454;49.878;8.618;2023-04-03T08:40:23;15.30;63.10
39779;DHT22;25454;49.878;8.618;2023-04-03T08:45:57;16.20;61.80
39779;DHT22;25454;49.878;8.618;2023-04-03T08:51:08;16.60;58.20
39779;DHT22;25454;49.878;8.618;2023-04-03T08:56:13;16.20;59.50
39779;DHT22;25454;49.878;8.618;2023-04-03T09:01:33;16.30;57.70
39779;DHT22;25454;49.878;8.618;2023-04-03T09:06:36;16.80;55.80
39779;DHT22;25454;49.878;8.618;2023-04-03T09:18:13;17.80;51.80
39779;DHT22;25454;49.878;8.618;2023-04-03T09:22:42;15.90;55.00
39779;DHT22;25454;49.878;8.618;2023-04-03T09:27:44;13.70;59.90
39779;DHT22;25454;49.878;8.618;2023-04-03T09:32:53;11.70;66.20
39779;DHT22;25454;49.878;8.618;2023-04-03T09:37:59;12.00;69.10
39779;DHT22;25454;49.878;8.618;2023-04-03T09:43:02;12.30;66.20
39779;DHT22;25454;49.878;8.618;2023-04-03T09:48:22;11.00;66.70
39779;DHT22;25454;49.878;8.618;2023-04-03T09:53:30;11.20;69.10
39779;DHT22;25454;49.878;8.618;2023-04-03T09:58:33;13.30;60.00
39779;DHT22;25454;49.878;8.618;2023-04-03T10:03:37;11.90;64.20
39779;DHT22;25454;49.878;8.618;2023-04-03T10:08:39;11.30;67.70
39779;DHT22;25454;49.878;8.618;2023-04-03T10:13:56;10.60;69.30
39779;DHT22;25454;49.878;8.618;2023-04-03T10:29:40;16.20;55.20
39779;DHT22;25454;49.878;8.618;2023-04-03T10:34:43;14.40;55.50
39779;DHT22;25454;49.878;8.618;2023-04-03T10:39:53;12.60;60.40
39779;DHT22;25454;49.878;8.618;2023-04-03T10:50:53;11.90;61.00
39779;DHT22;25454;49.878;8.618;2023-04-03T11:01:38;12.30;62.20
39779;DHT22;25454;49.878;8.618;2023-04-03T11:06:52;11.70;64.60
39779;DHT22;25454;49.878;8.618;2023-04-03T11:12:01;10.80;66.40
39779;DHT22;25454;49.878;8.618;2023-04-03T11:22:29;12.10;61.20
39779;DHT22;25454;49.878;8.618;2023-04-03T11:27:46;10.90;65.60
39779;DHT22;25454;49.878;8.618;2023-04-03T11:38:19;12.10;63.40
39779;DHT22;25454;49.878;8.618;2023-04-03T11:43:26;11.30;63.80
39779;DHT22;25454;49.878;8.618;2023-04-03T11:53:37;10.50;66.10
39779;DHT22;25454;49.878;8.618;2023-04-03T11:58:39;10.50;67.40
39779;DHT22;25454;49.878;8.618;2023-04-03T12:40:26;10.40;55.90
39779;DHT22;25454;49.878;8.618;2023-04-03T12:45:28;10.00;56.40
39779;DHT22;25454;49.878;8.618;2023-04-03T12:50:31;9.90;55.80
39779;DHT22;25454;49.878;8.618;2023-04-03T12:55:33;9.80;56.00
39779;DHT22;25454;49.878;8.618;2023-04-03T13:00:35;9.80;56.60
39779;DHT22;25454;49.878;8.618;2023-04-03T13:05:36;10.00;55.80
39779;DHT22;25454;49.878;8.618;2023-04-03T13:10:52;9.90;55.00
39779;DHT22;25454;49.878;8.618;2023-04-03T13:15:54;9.50;54.40
39779;DHT22;25454;49.878;8.618;2023-04-03T13:21:15;9.30;53.10
39779;DHT22;25454;49.878;8.618;2023-04-03T13:26:18;9.40;54.00
39779;DHT22;25454;49.878;8.618;2023-04-03T13:31:26;9.50;56.00
39779;DHT22;25454;49.878;8.618;2023-04-03T13:36:32;9.70;56.80
39779;DHT22;25454;49.878;8.618;2023-04-03T13:41:36;9.80;58.00
39779;DHT22;25454;49.878;8.618;2023-04-03T13:46:37;10.20;58.90
39779;DHT22;25454;49.878;8.618;2023-04-03T13:51:38;10.00;57.50
39779;DHT22;25454;49.878;8.618;2023-04-03T13:56:41;10.00;58.20
39779;DHT22;25454;49.878;8.618;2023-04-03T14:06:51;9.80;58.80
39779;DHT22;25454;49.878;8.618;2023-04-03T14:11:58;10.20;59.40
39779;DHT22;25454;49.878;8.618;2023-04-03T14:17:03;10.10;58.90
39779;DHT22;25454;49.878;8.618;2023-04-03T14:22:17;9.90;60.10
39779;DHT22;25454;49.878;8.618;2023-04-03T14:27:20;10.10;60.60
39779;DHT22;25454;49.878;8.618;2023-04-03T14:32:23;10.10;59.40
39779;DHT22;25454;49.878;8.618;2023-04-03T14:37:27;9.90;60.80
39779;DHT22;25454;49.878;8.618;2023-04-03T14:42:31;9.80;61.00
39779;DHT22;25454;49.878;8.618;2023-04-03T14:47:32;9.80;62.20
39779;DHT22;25454;49.878;8.618;2023-04-03T14:52:35;9.70;59.90
39779;DHT22;25454;49.878;8.618;2023-04-03T14:57:36;9.70;59.90
39779;DHT22;25454;49.878;8.618;2023-04-03T15:02:38;10.00;61.10
39779;DHT22;25454;49.878;8.618;2023-04-03T15:07:41;10.10;60.10
39779;DHT22;25454;49.878;8.618;2023-04-03T15:12:43;10.00;60.30
39779;DHT22;25454;49.878;8.618;2023-04-03T15:17:45;9.70;61.80
39779;DHT22;25454;49.878;8.618;2023-04-03T15:22:48;9.70;62.00
39779;DHT22;25454;49.878;8.618;2023-04-03T15:27:49;9.70;62.70
39779;DHT22;25454;49.878;8.618;2023-04-03T15:32:50;10.00;61.40
39779;DHT22;25454;49.878;8.618;2023-04-03T15:37:51;10.20;60.00
39779;DHT22;25454;49.878;8.618;2023-04-03T15:42:51;9.60;60.90
39779;DHT22;25454;49.878;8.618;2023-04-03T15:47:52;9.40;62.60
39779;DHT22;25454;49.878;8.618;2023-04-03T15:52:53;9.30;62.30
39779;DHT22;25454;49.878;8.618;2023-04-03T15:57:58;9.20;63.70
39779;DHT22;25454;49.878;8.618;2023-04-03T16:03:02;9.20;63.50
39779;DHT22;25454;49.878;8.618;2023-04-03T16:08:05;9.20;63.90
39779;DHT22;25454;49.878;8.618;2023-04-03T16:13:07;9.10;64.70
39779;DHT22;25454;49.878;8.618;2023-04-03T16:18:08;9.00;67.00
39779;DHT22;25454;49.878;8.618;2023-04-03T16:23:11;8.90;65.40
39779;DHT22;25454;49.878;8.618;2023-04-03T16:28:15;8.90;65.60
39779;DHT22;25454;49.878;8.618;2023-04-03T16:33:17;8.90;66.20
39779;DHT22;25454;49.878;8.618;2023-04-03T16:38:21;8.70;65.70
39779;DHT22;25454;49.878;8.618;2023-04-03T16:43:22;8.60;66.80
39779;DHT22;25454;49.878;8.618;2023-04-03T16:48:23;8.50;67.00
39779;DHT22;25454;49.878;8.618;2023-04-03T16:53:24;8.40;67.20
39779;DHT22;25454;49.878;8.618;2023-04-03T16:58:25;8.30;67.20
39779;DHT22;25454;49.878;8.618;2023-04-03T17:03:26;8.20;66.90
39779;DHT22;25454;49.878;8.618;2023-04-03T17:08:28;8.10;68.00
39779;DHT22;25454;49.878;8.618;2023-04-03T17:13:28;8.00;68.40
39779;DHT22;25454;49.878;8.618;2023-04-03T17:18:33;7.90;68.50
39779;DHT22;25454;49.878;8.618;2023-04-03T17:23:35;7.80;69.60
39779;DHT22;25454;49.878;8.618;2023-04-03T17:28:36;7.70;70.00
39779;DHT22;25454;49.878;8.618;2023-04-03T17:33:38;7.60;70.40
39779;DHT22;25454;49.878;8.618;2023-04-03T17:38:39;7.50;70.90
39779;DHT22;25454;49.878;8.618;2023-04-03T17:43:40;7.40;71.20
39779;DHT22;25454;49.878;8.618;2023-04-03T17:48:41;7.40;73.00
39779;DHT22;25454;49.878;8.618;2023-04-03T17:53:42;7.20;71.30
39779;DHT22;25454;49.878;8.618;2023-04-03T17:58:44;7.10;70.30
39779;DHT22;25454;49.878;8.618;2023-04-03T18:03:46;7.10;71.40
39779;DHT22;25454;49.878;8.618;2023-04-03T18:08:49;6.90;71.70
39779;DHT22;25454;49.878;8.618;2023-04-03T18:13:51;6.80;72.10
39779;DHT22;25454;49.878;8.618;2023-04-03T18:18:51;6.70;73.20
39779;DHT22;25454;49.878;8.618;2023-04-03T18:23:53;6.60;73.20
39779;DHT22;25454;49.878;8.618;2023-04-03T18:28:57;6.50;73.60
39779;DHT22;25454;49.878;8.618;2023-04-03T18:33:59;6.50;74.20
39779;DHT22;25454;49.878;8.618;2023-04-03T18:39:00;6.40;74.40
39779;DHT22;25454;49.878;8.618;2023-04-03T18:44:03;6.30;74.40
39779;DHT22;25454;49.878;8.618;2023-04-03T18:49:04;6.20;75.00
39779;DHT22;25454;49.878;8.618;2023-04-03T18:54:06;6.10;75.30
39779;DHT22;25454;49.878;8.618;2023-04-03T18:59:08;6.00;75.70
39779;DHT22;25454;49.878;8.618;2023-04-03T19:10:07;5.90;77.00
39779;DHT22;25454;49.878;8.618;2023-04-03T19:15:08;5.80;77.20
39779;DHT22;25454;49.878;8.618;2023-04-03T19:20:10;5.70;77.70
39779;DHT22;25454;49.878;8.618;2023-04-03T19:25:11;5.60;78.50
39779;DHT22;25454;49.878;8.618;2023-04-03T19:30:13;5.50;78.60
39779;DHT22;25454;49.878;8.618;2023-04-03T19:35:13;5.50;78.90
39779;DHT22;25454;49.878;8.618;2023-04-03T19:40:15;5.40;78.80
39779;DHT22;25454;49.878;8.618;2023-04-03T19:45:16;5.40;79.40
39779;DHT22;25454;49.878;8.618;2023-04-03T19:50:17;5.30;79.60
39779;DHT22;25454;49.878;8.618;2023-04-03T19:55:18;5.20;79.80
39779;DHT22;25454;49.878;8.618;2023-04-03T20:00:19;5.20;80.50
39779;DHT22;25454;49.878;8.618;2023-04-03T20:05:20;5.10;81.00
39779;DHT22;25454;49.878;8.618;2023-04-03T20:10:21;5.00;81.70
39779;DHT22;25454;49.878;8.618;2023-04-03T20:15:21;5.00;81.90
39779;DHT22;25454;49.878;8.618;2023-04-03T20:20:25;4.90;82.10
39779;DHT22;25454;49.878;8.618;2023-04-03T20:25:26;4.90;82.60
39779;DHT22;25454;49.878;8.618;2023-04-03T20:30:27;4.90;82.90
39779;DHT22;25454;49.878;8.618;2023-04-03T20:35:28;4.80;84.10
39779;DHT22;25454;49.878;8.618;2023-04-03T20:40:28;4.70;84.60
39779;DHT22;25454;49.878;8.618;2023-04-03T20:45:29;4.60;85.40
39779;DHT22;25454;49.878;8.618;2023-04-03T20:50:32;4.50;86.20
39779;DHT22;25454;49.878;8.618;2023-04-03T20:55:33;4.40;86.00
39779;DHT22;25454;49.878;8.618;2023-04-03T21:00:33;4.40;86.40
39779;DHT22;25454;49.878;8.618;2023-04-03T21:05:36;4.30;86.50
39779;DHT22;25454;49.878;8.618;2023-04-03T21:21:20;4.10;87.90
39779;DHT22;25454;49.878;8.618;2023-04-03T21:26:25;4.10;88.20
39779;DHT22;25454;49.878;8.618;2023-04-03T21:31:53;4.10;86.10
39779;DHT22;25454;49.878;8.618;2023-04-03T21:37:04;3.90;86.90
39779;DHT22;25454;49.878;8.618;2023-04-03T21:42:05;3.90;87.20
39779;DHT22;25454;49.878;8.618;2023-04-03T21:47:06;3.80;87.40
39779;DHT22;25454;49.878;8.618;2023-04-03T21:52:07;3.80;88.00
39779;DHT22;25454;49.878;8.618;2023-04-03T21:57:08;3.70;88.00
39779;DHT22;25454;49.878;8.618;2023-04-03T22:02:14;3.70;88.10
39779;DHT22;25454;49.878;8.618;2023-04-03T22:07:15;3.70;88.40
39779;DHT22;25454;49.878;8.618;2023-04-03T22:12:15;3.60;88.80
39779;DHT22;25454;49.878;8.618;2023-04-03T22:17:16;3.50;88.90
39779;DHT22;25454;49.878;8.618;2023-04-03T22:22:17;3.40;89.30
39779;DHT22;25454;49.878;8.618;2023-04-03T22:27:18;3.40;89.50
39779;DHT22;25454;49.878;8.618;2023-04-03T22:32:18;3.30;89.40
39779;DHT22;25454;49.878;8.618;2023-04-03T22:37:19;3.30;89.80
39779;DHT22;25454;49.878;8.618;2023-04-03T22:42:19;3.20;89.80
39779;DHT22;25454;49.878;8.618;2023-04-03T22:47:20;3.20;90.10
39779;DHT22;25454;49.878;8.618;2023-04-03T22:52:21;3.10;90.30
39779;DHT22;25454;49.878;8.618;2023-04-03T22:57:24;3.00;90.30
39779;DHT22;25454;49.878;8.618;2023-04-03T23:02:25;3.00;90.50
39779;DHT22;25454;49.878;8.618;2023-04-03T23:07:28;3.00;90.50
39779;DHT22;25454;49.878;8.618;2023-04-03T23:12:28;2.90;90.60
39779;DHT22;25454;49.878;8.618;2023-04-03T23:17:29;2.80;90.80
39779;DHT22;25454;49.878;8.618;2023-04-03T23:22:29;2.80;90.90
39779;DHT22;25454;49.878;8.618;2023-04-03T23:27:30;2.80;91.20
39779;DHT22;25454;49.878;8.618;2023-04-03T23:32:31;2.80;91.30
39779;DHT22;25454;49.878;8.618;2023-04-03T23:37:31;2.70;91.30
39779;DHT22;25454;49.878;8.618;2023-04-03T23:42:32;2.60;91.40
39779;DHT22;25454;49.878;8.618;2023-04-03T23:47:32;2.60;91.30
39779;DHT22;25454;49.878;8.618;2023-04-03T23:52:33;2.50;91.40
39779;DHT22;25454;49.878;8.618;2023-04-03T23:57:34;2.50;91.70
